sensor_id;sensor_type;location;lat;lon;timestamp;pressure;altitude;pressure_sealevel;temperature;humidity
80180;BME280;69505;52.134;5.438;2023-05-10T00:00:19;101017.81;;;12.04;97.20
80180;BME280;69505;52.134;5.438;2023-05-10T00:02:46;101022.25;;;12.03;97.23
80180;BME280;69505;52.134;5.438;2023-05-10T00:05:13;101014.28;;;12.03;97.43
80180;BME280;69505;52.134;5.438;2023-05-10T00:07:40;101018.66;;;12.04;97.08
80180;BME280;69505;52.134;5.438;2023-05-10T00:10:07;101017.66;;;12.05;97.40
80180;BME280;69505;52.134;5.438;2023-05-10T00:12:34;101015.16;;;12.04;97.44
80180;BME280;69505;52.134;5.438;2023-05-10T00:15:00;101011.50;;;12.05;97.51
80180;BME280;69505;52.134;5.438;2023-05-10T00:17:27;101011.13;;;12.09;97.53
80180;BME280;69505;52.134;5.438;2023-05-10T00:19:54;101007.63;;;12.09;97.24
80180;BME280;69505;52.134;5.438;2023-05-10T00:22:20;101009.56;;;12.07;97.61
80180;BME280;69505;52.134;5.438;2023-05-10T00:24:47;101010.88;;;12.12;97.78
80180;BME280;69505;52.134;5.438;2023-05-10T00:27:13;101012.84;;;12.10;97.62
80180;BME280;69505;52.134;5.438;2023-05-10T00:29:40;101009.91;;;12.13;97.95
80180;BME280;69505;52.134;5.438;2023-05-10T00:32:07;101006.41;;;12.13;97.29
80180;BME280;69505;52.134;5.438;2023-05-10T00:34:34;101008.94;;;12.14;97.81
80180;BME280;69505;52.134;5.438;2023-05-10T00:37:00;101004.47;;;12.15;97.65
80180;BME280;69505;52.134;5.438;2023-05-10T00:39:27;101008.94;;;12.14;97.71
80180;BME280;69505;52.134;5.438;2023-05-10T00:41:54;101016.09;;;12.14;97.82
80180;BME280;69505;52.134;5.438;2023-05-10T00:44:21;101011.72;;;12.13;97.97
80180;BME280;69505;52.134;5.438;2023-05-10T00:46:48;101017.91;;;12.13;97.76
80180;BME280;69505;52.134;5.438;2023-05-10T00:49:15;101012.34;;;12.16;98.39
80180;BME280;69505;52.134;5.438;2023-05-10T00:51:42;101006.19;;;12.16;97.63
80180;BME280;69505;52.134;5.438;2023-05-10T00:54:12;101007.84;;;12.17;97.79
80180;BME280;69505;52.134;5.438;2023-05-10T00:56:38;101012.22;;;12.18;98.12
80180;BME280;69505;52.134;5.438;2023-05-10T00:59:06;101010.63;;;12.15;97.89
80180;BME280;69505;52.134;5.438;2023-05-10T01:01:33;101010.88;;;12.12;98.20
80180;BME280;69505;52.134;5.438;2023-05-10T01:03:59;101010.88;;;12.12;97.61
80180;BME280;69505;52.134;5.438;2023-05-10T01:06:26;101010.06;;;12.12;98.29
80180;BME280;69505;52.134;5.438;2023-05-10T01:08:54;101012.84;;;12.10;98.42
80180;BME280;69505;52.134;5.438;2023-05-10T01:11:20;101008.34;;;12.11;97.98
80180;BME280;69505;52.134;5.438;2023-05-10T01:13:52;101016.22;;;12.12;98.25
80180;BME280;69505;52.134;5.438;2023-05-10T01:16:20;101012.84;;;12.10;98.35
80180;BME280;69505;52.134;5.438;2023-05-10T01:18:48;101014.41;;;12.13;98.34
80180;BME280;69505;52.134;5.438;2023-05-10T01:21:43;101017.16;;;12.11;98.75
80180;BME280;69505;52.134;5.438;2023-05-10T01:27:17;101017.91;;;12.13;98.15
80180;BME280;69505;52.134;5.438;2023-05-10T01:30:00;101012.56;;;12.13;98.48
80180;BME280;69505;52.134;5.438;2023-05-10T01:32:45;101008.34;;;12.11;98.80
80180;BME280;69505;52.134;5.438;2023-05-10T01:35:29;101013.56;;;12.12;98.64
80180;BME280;69505;52.134;5.438;2023-05-10T01:38:07;101011.72;;;12.13;98.69
80180;BME280;69505;52.134;5.438;2023-05-10T01:40:57;101008.22;;;12.12;98.65
80180;BME280;69505;52.134;5.438;2023-05-10T01:43:32;101019.72;;;12.13;98.23
80180;BME280;69505;52.134;5.438;2023-05-10T01:46:12;101018.88;;;12.12;98.42
80180;BME280;69505;52.134;5.438;2023-05-10T01:48:51;101020.56;;;12.13;97.91
80180;BME280;69505;52.134;5.438;2023-05-10T01:51:23;101014.50;;;12.11;98.42
80180;BME280;69505;52.134;5.438;2023-05-10T01:53:59;101013.56;;;12.12;98.06
80180;BME280;69505;52.134;5.438;2023-05-10T01:56:28;101017.91;;;12.13;97.92
80180;BME280;69505;52.134;5.438;2023-05-10T01:58:56;101015.22;;;12.13;98.47
80180;BME280;69505;52.134;5.438;2023-05-10T02:01:25;101003.84;;;12.11;98.00
80180;BME280;69505;52.134;5.438;2023-05-10T02:03:53;101026.88;;;12.12;98.61
80180;BME280;69505;52.134;5.438;2023-05-10T02:06:22;101017.31;;;12.10;98.30
80180;BME280;69505;52.134;5.438;2023-05-10T02:08:50;101018.38;;;12.07;98.25
80180;BME280;69505;52.134;5.438;2023-05-10T02:11:19;101025.66;;;12.05;98.32
80180;BME280;69505;52.134;5.438;2023-05-10T02:13:49;101022.03;;;12.06;98.25
80180;BME280;69505;52.134;5.438;2023-05-10T02:16:16;101023.59;;;12.09;98.31
80180;BME280;69505;52.134;5.438;2023-05-10T02:18:44;101026.88;;;12.12;98.39
80180;BME280;69505;52.134;5.438;2023-05-10T02:21:13;101026.03;;;12.12;98.13
80180;BME280;69505;52.134;5.438;2023-05-10T02:23:42;101030.47;;;12.11;98.27
80180;BME280;69505;52.134;5.438;2023-05-10T02:26:10;101029.66;;;12.11;98.09
80180;BME280;69505;52.134;5.438;2023-05-10T02:28:38;101029.66;;;12.11;98.34
80180;BME280;69505;52.134;5.438;2023-05-10T02:31:06;101028.81;;;12.10;98.77
80180;BME280;69505;52.134;5.438;2023-05-10T02:33:38;101034.38;;;12.07;98.52
80180;BME280;69505;52.134;5.438;2023-05-10T02:36:07;101036.19;;;12.07;98.73
80180;BME280;69505;52.134;5.438;2023-05-10T02:38:35;101036.31;;;12.05;98.21
80180;BME280;69505;52.134;5.438;2023-05-10T02:41:04;101033.63;;;12.05;98.07
80180;BME280;69505;52.134;5.438;2023-05-10T02:43:33;101038.97;;;12.05;98.25
80180;BME280;69505;52.134;5.438;2023-05-10T02:46:00;101046.94;;;12.05;98.31
80180;BME280;69505;52.134;5.438;2023-05-10T02:48:27;101054.22;;;12.03;98.00
80180;BME280;69505;52.134;5.438;2023-05-10T02:50:56;101043.81;;;12.00;97.71
80180;BME280;69505;52.134;5.438;2023-05-10T02:53:35;101048.41;;;11.98;97.66
80180;BME280;69505;52.134;5.438;2023-05-10T02:56:11;101040.53;;;11.96;97.91
80180;BME280;69505;52.134;5.438;2023-05-10T02:58:39;101044.81;;;11.99;97.85
80180;BME280;69505;52.134;5.438;2023-05-10T03:01:06;101047.47;;;11.99;98.15
80180;BME280;69505;52.134;5.438;2023-05-10T03:03:34;101047.59;;;11.97;98.15
80180;BME280;69505;52.134;5.438;2023-05-10T03:06:00;101044.69;;;11.89;98.22
80180;BME280;69505;52.134;5.438;2023-05-10T03:08:27;101054.97;;;11.94;98.20
80180;BME280;69505;52.134;5.438;2023-05-10T03:11:09;101051.06;;;11.87;98.30
80180;BME280;69505;52.134;5.438;2023-05-10T03:16:45;101050.22;;;11.75;98.18
80180;BME280;69505;52.134;5.438;2023-05-10T03:19:23;101055.53;;;11.64;98.17
80180;BME280;69505;52.134;5.438;2023-05-10T03:21:53;101052.25;;;11.60;98.27
80180;BME280;69505;52.134;5.438;2023-05-10T03:24:23;101063.63;;;11.62;98.27
80180;BME280;69505;52.134;5.438;2023-05-10T03:26:56;101063.63;;;11.62;98.32
80180;BME280;69505;52.134;5.438;2023-05-10T03:29:25;101068.09;;;11.62;98.19
80180;BME280;69505;52.134;5.438;2023-05-10T03:31:52;101070.88;;;11.60;98.42
80180;BME280;69505;52.134;5.438;2023-05-10T03:34:25;101073.44;;;11.62;98.52
80180;BME280;69505;52.134;5.438;2023-05-10T03:36:52;101070.88;;;11.60;98.66
80180;BME280;69505;52.134;5.438;2023-05-10T03:39:18;101069.06;;;11.61;98.55
80180;BME280;69505;52.134;5.438;2023-05-10T03:41:45;101067.22;;;11.61;98.50
80180;BME280;69505;52.134;5.438;2023-05-10T03:44:11;101061.22;;;11.59;98.68
80180;BME280;69505;52.134;5.438;2023-05-10T03:46:38;101066.66;;;11.57;98.76
80180;BME280;69505;52.134;5.438;2023-05-10T03:49:04;101064.56;;;11.61;98.77
80180;BME280;69505;52.134;5.438;2023-05-10T03:51:31;101061.31;;;11.57;98.32
80180;BME280;69505;52.134;5.438;2023-05-10T03:53:58;101060.59;;;11.55;98.55
80180;BME280;69505;52.134;5.438;2023-05-10T03:56:24;101064.00;;;11.57;98.43
80180;BME280;69505;52.134;5.438;2023-05-10T03:58:51;101066.53;;;11.59;98.30
80180;BME280;69505;52.134;5.438;2023-05-10T04:01:18;101070.78;;;11.62;98.85
80180;BME280;69505;52.134;5.438;2023-05-10T04:03:44;101064.56;;;11.61;99.04
80180;BME280;69505;52.134;5.438;2023-05-10T04:06:11;101067.38;;;11.60;98.44
80180;BME280;69505;52.134;5.438;2023-05-10T04:08:38;101073.53;;;11.60;98.92
80180;BME280;69505;52.134;5.438;2023-05-10T04:11:09;101067.50;;;11.58;98.55
80180;BME280;69505;52.134;5.438;2023-05-10T04:13:36;101075.09;;;11.63;99.04
80180;BME280;69505;52.134;5.438;2023-05-10T04:16:03;101070.78;;;11.62;98.71
80180;BME280;69505;52.134;5.438;2023-05-10T04:18:30;101077.88;;;11.61;98.60
80180;BME280;69505;52.134;5.438;2023-05-10T04:20:57;101072.56;;;11.61;99.02
80180;BME280;69505;52.134;5.438;2023-05-10T04:23:24;101072.34;;;11.64;98.99
80180;BME280;69505;52.134;5.438;2023-05-10T04:25:50;101076.94;;;11.62;98.98
80180;BME280;69505;52.134;5.438;2023-05-10T04:28:17;101073.06;;;11.66;98.53
80180;BME280;69505;52.134;5.438;2023-05-10T04:30:43;101068.47;;;11.68;98.53
80180;BME280;69505;52.134;5.438;2023-05-10T04:33:10;101072.81;;;11.69;98.57
80180;BME280;69505;52.134;5.438;2023-05-10T04:35:36;101078.88;;;11.71;98.36
80180;BME280;69505;52.134;5.438;2023-05-10T04:38:03;101079.72;;;11.72;98.41
80180;BME280;69505;52.134;5.438;2023-05-10T04:40:29;101081.53;;;11.71;98.36
80180;BME280;69505;52.134;5.438;2023-05-10T04:42:56;101074.53;;;11.70;98.17
80180;BME280;69505;52.134;5.438;2023-05-10T04:45:22;101079.13;;;11.68;98.61
80180;BME280;69505;52.134;5.438;2023-05-10T04:47:49;101079.97;;;11.69;98.91
80180;BME280;69505;52.134;5.438;2023-05-10T04:50:15;101086.13;;;11.69;99.15
80180;BME280;69505;52.134;5.438;2023-05-10T04:52:42;101086.84;;;11.71;98.79
80180;BME280;69505;52.134;5.438;2023-05-10T04:55:09;101089.16;;;11.76;98.36
80180;BME280;69505;52.134;5.438;2023-05-10T04:57:36;101091.69;;;11.77;98.57
80180;BME280;69505;52.134;5.438;2023-05-10T05:00:03;101095.34;;;11.76;98.78
80180;BME280;69505;52.134;5.438;2023-05-10T05:02:30;101099.66;;;11.77;98.66
80180;BME280;69505;52.134;5.438;2023-05-10T05:04:57;101099.81;;;11.76;98.50
80180;BME280;69505;52.134;5.438;2023-05-10T05:07:24;101097.16;;;11.76;98.76
80180;BME280;69505;52.134;5.438;2023-05-10T05:09:50;101108.91;;;11.85;98.73
80180;BME280;69505;52.134;5.438;2023-05-10T05:12:16;101099.94;;;11.86;98.53
80180;BME280;69505;52.134;5.438;2023-05-10T05:14:43;101105.25;;;11.86;98.87
80180;BME280;69505;52.134;5.438;2023-05-10T05:17:09;101103.31;;;11.88;98.63
80180;BME280;69505;52.134;5.438;2023-05-10T05:19:36;101105.13;;;11.87;98.65
80180;BME280;69505;52.134;5.438;2023-05-10T05:22:03;101104.06;;;11.90;98.52
80180;BME280;69505;52.134;5.438;2023-05-10T05:24:34;101117.16;;;11.93;98.25
80180;BME280;69505;52.134;5.438;2023-05-10T05:27:02;101110.84;;;11.94;98.64
80180;BME280;69505;52.134;5.438;2023-05-10T05:29:28;101119.81;;;11.93;98.43
80180;BME280;69505;52.134;5.438;2023-05-10T05:31:55;101124.16;;;11.94;98.18
80180;BME280;69505;52.134;5.438;2023-05-10T05:34:21;101121.75;;;11.91;98.23
80180;BME280;69505;52.134;5.438;2023-05-10T05:36:48;101122.22;;;11.96;98.38
80180;BME280;69505;52.134;5.438;2023-05-10T05:39:15;101120.28;;;11.98;98.43
80180;BME280;69505;52.134;5.438;2023-05-10T05:41:42;101129.25;;;11.97;98.11
80180;BME280;69505;52.134;5.438;2023-05-10T05:44:08;101124.78;;;11.97;98.08
80180;BME280;69505;52.134;5.438;2023-05-10T05:46:35;101125.72;;;11.96;98.14
80180;BME280;69505;52.134;5.438;2023-05-10T05:49:01;101133.13;;;11.93;98.13
80180;BME280;69505;52.134;5.438;2023-05-10T05:51:28;101134.69;;;11.95;97.77
80180;BME280;69505;52.134;5.438;2023-05-10T05:53:55;101130.00;;;11.99;97.67
80180;BME280;69505;52.134;5.438;2023-05-10T05:56:21;101141.38;;;12.01;98.06
80180;BME280;69505;52.134;5.438;2023-05-10T05:58:51;101131.56;;;12.02;98.09
80180;BME280;69505;52.134;5.438;2023-05-10T06:01:17;101133.59;;;11.98;97.59
80180;BME280;69505;52.134;5.438;2023-05-10T06:03:44;101152.25;;;11.98;97.60
80180;BME280;69505;52.134;5.438;2023-05-10T06:06:10;101153.22;;;11.97;97.64
80180;BME280;69505;52.134;5.438;2023-05-10T06:08:37;101158.66;;;11.95;97.52
80180;BME280;69505;52.134;5.438;2023-05-10T06:11:03;101158.03;;;11.92;97.65
80180;BME280;69505;52.134;5.438;2023-05-10T06:13:30;101170.50;;;11.91;97.28
80180;BME280;69505;52.134;5.438;2023-05-10T06:15:59;101162.84;;;11.87;97.34
80180;BME280;69505;52.134;5.438;2023-05-10T06:18:26;101168.69;;;11.92;96.82
80180;BME280;69505;52.134;5.438;2023-05-10T06:20:52;101175.84;;;11.91;96.80
80180;BME280;69505;52.134;5.438;2023-05-10T06:23:19;101172.34;;;11.91;97.39
80180;BME280;69505;52.134;5.438;2023-05-10T06:25:45;101172.63;;;11.86;97.11
80180;BME280;69505;52.134;5.438;2023-05-10T06:28:12;101172.78;;;11.85;97.13
80180;BME280;69505;52.134;5.438;2023-05-10T06:30:38;101170.84;;;11.87;97.17
80180;BME280;69505;52.134;5.438;2023-05-10T06:33:05;101167.19;;;11.88;97.41
80180;BME280;69505;52.134;5.438;2023-05-10T06:35:32;101162.88;;;11.98;97.42
80180;BME280;69505;52.134;5.438;2023-05-10T06:37:59;101166.53;;;12.08;97.52
80180;BME280;69505;52.134;5.438;2023-05-10T06:40:26;101170.66;;;12.01;97.22
80180;BME280;69505;52.134;5.438;2023-05-10T06:42:52;101175.84;;;12.03;97.44
80180;BME280;69505;52.134;5.438;2023-05-10T06:45:19;101181.06;;;12.04;96.89
80180;BME280;69505;52.134;5.438;2023-05-10T06:47:46;101182.97;;;12.02;97.15
80180;BME280;69505;52.134;5.438;2023-05-10T06:50:12;101184.44;;;11.95;96.39
80180;BME280;69505;52.134;5.438;2023-05-10T06:52:39;101185.03;;;11.98;96.58
80180;BME280;69505;52.134;5.438;2023-05-10T06:55:06;101187.94;;;12.07;96.67
80180;BME280;69505;52.134;5.438;2023-05-10T06:57:33;101197.41;;;12.11;96.66
80180;BME280;69505;52.134;5.438;2023-05-10T07:00:00;101195.31;;;12.03;95.53
80180;BME280;69505;52.134;5.438;2023-05-10T07:02:26;101197.97;;;12.03;96.18
80180;BME280;69505;52.134;5.438;2023-05-10T07:04:53;101187.09;;;12.06;95.57
80180;BME280;69505;52.134;5.438;2023-05-10T07:07:20;101189.28;;;12.12;96.19
80180;BME280;69505;52.134;5.438;2023-05-10T07:09:47;101188.78;;;12.07;94.55
80180;BME280;69505;52.134;5.438;2023-05-10T07:12:13;101204.06;;;12.16;94.70
80180;BME280;69505;52.134;5.438;2023-05-10T07:14:41;101202.88;;;12.21;94.47
80180;BME280;69505;52.134;5.438;2023-05-10T07:17:08;101199.84;;;12.14;94.35
80180;BME280;69505;52.134;5.438;2023-05-10T07:19:35;101211.06;;;12.17;95.23
80180;BME280;69505;52.134;5.438;2023-05-10T07:22:02;101211.31;;;12.14;94.52
80180;BME280;69505;52.134;5.438;2023-05-10T07:24:29;101207.56;;;12.17;94.79
80180;BME280;69505;52.134;5.438;2023-05-10T07:26:56;101214.94;;;12.13;94.47
80180;BME280;69505;52.134;5.438;2023-05-10T07:29:22;101201.63;;;12.13;93.72
80180;BME280;69505;52.134;5.438;2023-05-10T07:31:49;101214.25;;;12.23;93.92
80180;BME280;69505;52.134;5.438;2023-05-10T07:34:15;101217.28;;;12.29;93.75
80180;BME280;69505;52.134;5.438;2023-05-10T07:36:42;101219.69;;;12.32;94.49
80180;BME280;69505;52.134;5.438;2023-05-10T07:39:08;101217.63;;;12.47;94.61
80180;BME280;69505;52.134;5.438;2023-05-10T07:41:36;101225.03;;;12.55;93.81
80180;BME280;69505;52.134;5.438;2023-05-10T07:44:04;101228.06;;;12.50;92.65
80180;BME280;69505;52.134;5.438;2023-05-10T07:46:31;101225.13;;;12.53;93.16
80180;BME280;69505;52.134;5.438;2023-05-10T07:48:58;101235.09;;;12.63;93.04
80180;BME280;69505;52.134;5.438;2023-05-10T07:51:24;101233.88;;;12.67;90.74
80180;BME280;69505;52.134;5.438;2023-05-10T07:53:51;101238.22;;;12.79;92.30
80180;BME280;69505;52.134;5.438;2023-05-10T07:56:31;101234.44;;;12.70;90.63
80180;BME280;69505;52.134;5.438;2023-05-10T07:58:59;101233.38;;;12.73;90.79
80180;BME280;69505;52.134;5.438;2023-05-10T08:01:26;101246.81;;;12.83;90.75
80180;BME280;69505;52.134;5.438;2023-05-10T08:03:56;101244.75;;;12.86;91.17
80180;BME280;69505;52.134;5.438;2023-05-10T08:06:22;101245.97;;;12.82;91.38
80180;BME280;69505;52.134;5.438;2023-05-10T08:08:49;101254.81;;;12.83;90.00
80180;BME280;69505;52.134;5.438;2023-05-10T08:11:17;101255.28;;;12.76;89.97
80180;BME280;69505;52.134;5.438;2023-05-10T08:13:48;101258.19;;;12.85;90.42
80180;BME280;69505;52.134;5.438;2023-05-10T08:16:15;101252.50;;;12.78;90.89
80180;BME280;69505;52.134;5.438;2023-05-10T08:18:44;101257.13;;;12.76;89.82
80180;BME280;69505;52.134;5.438;2023-05-10T08:21:15;101268.50;;;12.78;90.39
80180;BME280;69505;52.134;5.438;2023-05-10T08:23:42;101257.97;;;12.76;90.31
80180;BME280;69505;52.134;5.438;2023-05-10T08:26:10;101256.75;;;12.80;90.50
80180;BME280;69505;52.134;5.438;2023-05-10T08:28:37;101264.28;;;12.75;90.12
80180;BME280;69505;52.134;5.438;2023-05-10T08:31:04;101262.22;;;12.79;90.56
80180;BME280;69505;52.134;5.438;2023-05-10T08:33:31;101257.72;;;12.91;91.55
80180;BME280;69505;52.134;5.438;2023-05-10T08:35:57;101261.13;;;12.82;90.14
80180;BME280;69505;52.134;5.438;2023-05-10T08:38:24;101268.88;;;12.96;92.09
80180;BME280;69505;52.134;5.438;2023-05-10T08:40:54;101286.44;;;12.98;90.43
80180;BME280;69505;52.134;5.438;2023-05-10T08:43:28;101277.47;;;12.88;90.25
80180;BME280;69505;52.134;5.438;2023-05-10T08:46:00;101284.25;;;12.92;90.69
80180;BME280;69505;52.134;5.438;2023-05-10T08:48:29;101279.66;;;12.94;90.74
80180;BME280;69505;52.134;5.438;2023-05-10T08:50:58;101289.09;;;12.98;89.87
80180;BME280;69505;52.134;5.438;2023-05-10T08:53:28;101289.34;;;13.07;89.03
80180;BME280;69505;52.134;5.438;2023-05-10T08:55:55;101294.91;;;13.15;91.54
80180;BME280;69505;52.134;5.438;2023-05-10T08:58:21;101289.31;;;13.18;90.79
80180;BME280;69505;52.134;5.438;2023-05-10T09:00:49;101301.69;;;13.08;90.50
80180;BME280;69505;52.134;5.438;2023-05-10T09:03:17;101303.38;;;13.20;89.81
80180;BME280;69505;52.134;5.438;2023-05-10T09:05:44;101299.72;;;13.44;88.63
80180;BME280;69505;52.134;5.438;2023-05-10T09:08:12;101297.16;;;13.53;87.20
80180;BME280;69505;52.134;5.438;2023-05-10T09:10:39;101298.84;;;13.87;87.19
80180;BME280;69505;52.134;5.438;2023-05-10T09:13:10;101297.25;;;14.16;84.72
80180;BME280;69505;52.134;5.438;2023-05-10T09:15:38;101294.03;;;14.23;85.19
80180;BME280;69505;52.134;5.438;2023-05-10T09:18:04;101296.06;;;14.30;85.22
80180;BME280;69505;52.134;5.438;2023-05-10T09:20:31;101293.97;;;13.92;85.23
80180;BME280;69505;52.134;5.438;2023-05-10T09:22:57;101303.22;;;14.09;86.06
80180;BME280;69505;52.134;5.438;2023-05-10T09:25:24;101302.50;;;14.28;86.74
80180;BME280;69505;52.134;5.438;2023-05-10T09:27:52;101302.59;;;14.58;84.73
80180;BME280;69505;52.134;5.438;2023-05-10T09:30:26;101311.22;;;14.72;84.56
80180;BME280;69505;52.134;5.438;2023-05-10T09:32:54;101306.53;;;14.85;83.24
80180;BME280;69505;52.134;5.438;2023-05-10T09:35:24;101310.50;;;15.00;84.98
80180;BME280;69505;52.134;5.438;2023-05-10T09:37:56;101314.38;;;15.17;78.50
80180;BME280;69505;52.134;5.438;2023-05-10T09:40:24;101308.88;;;15.19;79.52
80180;BME280;69505;52.134;5.438;2023-05-10T09:43:01;101322.16;;;15.30;78.56
80180;BME280;69505;52.134;5.438;2023-05-10T09:45:30;101320.25;;;15.71;77.56
80180;BME280;69505;52.134;5.438;2023-05-10T09:47:58;101314.53;;;15.86;78.05
80180;BME280;69505;52.134;5.438;2023-05-10T09:50:26;101328.59;;;16.07;76.89
80180;BME280;69505;52.134;5.438;2023-05-10T09:52:56;101328.75;;;16.06;76.21
80180;BME280;69505;52.134;5.438;2023-05-10T09:55:40;101328.59;;;15.78;80.50
80180;BME280;69505;52.134;5.438;2023-05-10T09:58:08;101326.72;;;15.59;80.51
80180;BME280;69505;52.134;5.438;2023-05-10T10:00:41;101332.59;;;15.43;79.96
80180;BME280;69505;52.134;5.438;2023-05-10T10:03:16;101333.50;;;15.13;78.28
80180;BME280;69505;52.134;5.438;2023-05-10T10:05:44;101333.09;;;15.08;82.16
80180;BME280;69505;52.134;5.438;2023-05-10T10:08:12;101333.63;;;15.01;83.82
80180;BME280;69505;52.134;5.438;2023-05-10T10:10:39;101339.47;;;14.86;82.96
80180;BME280;69505;52.134;5.438;2023-05-10T10:13:12;101338.09;;;14.91;82.02
80180;BME280;69505;52.134;5.438;2023-05-10T10:15:39;101344.41;;;14.90;82.04
80180;BME280;69505;52.134;5.438;2023-05-10T10:18:06;101339.59;;;14.84;82.30
80180;BME280;69505;52.134;5.438;2023-05-10T10:20:36;101344.75;;;14.76;81.77
80180;BME280;69505;52.134;5.438;2023-05-10T10:23:03;101351.00;;;14.86;78.87
80180;BME280;69505;52.134;5.438;2023-05-10T10:25:31;101350.03;;;14.87;79.25
80180;BME280;69505;52.134;5.438;2023-05-10T10:30:50;101342.75;;;15.39;82.85
80180;BME280;69505;52.134;5.438;2023-05-10T10:36:03;101343.00;;;15.27;82.11
80180;BME280;69505;52.134;5.438;2023-05-10T10:52:31;101352.00;;;15.26;81.19
80180;BME280;69505;52.134;5.438;2023-05-10T10:55:06;101350.63;;;15.31;80.72
80180;BME280;69505;52.134;5.438;2023-05-10T10:57:55;101354.63;;;15.16;78.38
80180;BME280;69505;52.134;5.438;2023-05-10T11:00:34;101359.56;;;15.11;78.36
80180;BME280;69505;52.134;5.438;2023-05-10T11:03:11;101363.47;;;15.07;80.91
80180;BME280;69505;52.134;5.438;2023-05-10T11:05:42;101354.00;;;15.33;84.44
80180;BME280;69505;52.134;5.438;2023-05-10T11:08:11;101358.28;;;15.46;77.93
80180;BME280;69505;52.134;5.438;2023-05-10T11:10:39;101359.91;;;15.37;78.17
80180;BME280;69505;52.134;5.438;2023-05-10T11:13:07;101351.69;;;15.19;77.50
80180;BME280;69505;52.134;5.438;2023-05-10T11:20:43;101359.19;;;14.94;78.50
80180;BME280;69505;52.134;5.438;2023-05-10T11:23:13;101366.59;;;14.81;81.46
80180;BME280;69505;52.134;5.438;2023-05-10T11:25:42;101366.31;;;14.84;79.89
80180;BME280;69505;52.134;5.438;2023-05-10T11:28:13;101369.66;;;14.97;83.17
80180;BME280;69505;52.134;5.438;2023-05-10T11:30:41;101364.31;;;14.97;81.18
80180;BME280;69505;52.134;5.438;2023-05-10T11:33:15;101369.66;;;15.07;79.92
80180;BME280;69505;52.134;5.438;2023-05-10T11:35:42;101366.16;;;15.47;80.04
80180;BME280;69505;52.134;5.438;2023-05-10T11:38:10;101370.88;;;15.74;80.66
80180;BME280;69505;52.134;5.438;2023-05-10T11:40:38;101362.31;;;16.00;77.16
80180;BME280;69505;52.134;5.438;2023-05-10T11:43:05;101369.50;;;16.29;78.35
80180;BME280;69505;52.134;5.438;2023-05-10T11:45:32;101369.00;;;16.72;75.65
80180;BME280;69505;52.134;5.438;2023-05-10T11:48:00;101365.84;;;16.96;75.18
80180;BME280;69505;52.134;5.438;2023-05-10T11:50:27;101364.91;;;17.15;73.57
80180;BME280;69505;52.134;5.438;2023-05-10T11:52:57;101364.66;;;17.09;71.20
80180;BME280;69505;52.134;5.438;2023-05-10T11:55:25;101363.28;;;17.04;73.75
80180;BME280;69505;52.134;5.438;2023-05-10T11:57:52;101363.97;;;17.07;74.50
80180;BME280;69505;52.134;5.438;2023-05-10T12:00:20;101374.31;;;17.01;73.38
80180;BME280;69505;52.134;5.438;2023-05-10T12:02:47;101367.34;;;16.61;72.00
80180;BME280;69505;52.134;5.438;2023-05-10T12:05:14;101375.56;;;16.40;72.33
80180;BME280;69505;52.134;5.438;2023-05-10T12:07:40;101376.13;;;16.05;74.27
80180;BME280;69505;52.134;5.438;2023-05-10T12:10:09;101369.06;;;16.04;76.79
80180;BME280;69505;52.134;5.438;2023-05-10T12:12:43;101375.56;;;16.01;76.56
80180;BME280;69505;52.134;5.438;2023-05-10T12:15:12;101378.38;;;16.00;78.76
80180;BME280;69505;52.134;5.438;2023-05-10T12:17:44;101376.13;;;16.05;76.97
80180;BME280;69505;52.134;5.438;2023-05-10T12:22:49;101377.41;;;16.30;72.87
80180;BME280;69505;52.134;5.438;2023-05-10T12:25:17;101382.34;;;16.44;73.16
80180;BME280;69505;52.134;5.438;2023-05-10T12:27:52;101377.25;;;16.51;71.25
80180;BME280;69505;52.134;5.438;2023-05-10T12:30:37;101376.63;;;16.67;75.78
80180;BME280;69505;52.134;5.438;2023-05-10T12:33:11;101377.47;;;16.77;73.28
80180;BME280;69505;52.134;5.438;2023-05-10T12:35:53;101376.09;;;16.63;71.95
80180;BME280;69505;52.134;5.438;2023-05-10T12:38:37;101375.19;;;16.92;73.00
80180;BME280;69505;52.134;5.438;2023-05-10T12:41:13;101376.53;;;17.16;74.21
80180;BME280;69505;52.134;5.438;2023-05-10T12:43:40;101368.16;;;17.47;72.71
80180;BME280;69505;52.134;5.438;2023-05-10T12:46:08;101372.88;;;17.62;69.25
80180;BME280;69505;52.134;5.438;2023-05-10T12:48:36;101373.34;;;17.58;68.77
80180;BME280;69505;52.134;5.438;2023-05-10T12:51:03;101371.03;;;17.63;72.12
80180;BME280;69505;52.134;5.438;2023-05-10T12:53:30;101373.38;;;17.48;70.31
80180;BME280;69505;52.134;5.438;2023-05-10T12:55:57;101380.59;;;17.48;69.84
80180;BME280;69505;52.134;5.438;2023-05-10T12:58:23;101385.81;;;17.21;72.30
80180;BME280;69505;52.134;5.438;2023-05-10T13:01:01;101387.31;;;17.34;68.77
80180;BME280;69505;52.134;5.438;2023-05-10T13:03:27;101387.63;;;17.31;70.24
80180;BME280;69505;52.134;5.438;2023-05-10T13:05:54;101386.50;;;17.51;72.03
80180;BME280;69505;52.134;5.438;2023-05-10T13:08:20;101392.84;;;17.60;71.28
80180;BME280;69505;52.134;5.438;2023-05-10T13:10:47;101389.38;;;17.50;70.72
80180;BME280;69505;52.134;5.438;2023-05-10T13:13:14;101397.31;;;17.41;70.37
80180;BME280;69505;52.134;5.438;2023-05-10T13:15:41;101402.00;;;16.92;71.77
80180;BME280;69505;52.134;5.438;2023-05-10T13:18:07;101392.69;;;16.96;70.91
80180;BME280;69505;52.134;5.438;2023-05-10T13:20:34;101403.59;;;16.85;73.04
80180;BME280;69505;52.134;5.438;2023-05-10T13:23:01;101402.94;;;16.34;74.96
80180;BME280;69505;52.134;5.438;2023-05-10T13:25:29;101422.06;;;15.81;77.97
80180;BME280;69505;52.134;5.438;2023-05-10T13:27:56;101414.03;;;15.40;79.40
80180;BME280;69505;52.134;5.438;2023-05-10T13:30:22;101422.72;;;15.23;81.27